sensor_id;sensor_type;location;lat;lon;timestamp;pressure;altitude;pressure_sealevel;temperature;humidity
17950;BME280;9100;48.700;9.316;2023-11-19T00:00:13;97331.3;;;8.35;100
17950;BME280;9100;48.700;9.316;2023-11-19T00:01:12;97332;;;8.36;100
17950;BME280;9100;48.700;9.316;2023-11-19T00:02:12;97339.5;;;8.37;100
17950;BME280;9100;48.700;9.316;2023-11-19T00:03:12;97346.2;;;8.38;100
17950;BME280;9100;48.700;9.316;2023-11-19T00:04:02;97340.3;;;8.38;100
17950;BME280;9100;48.700;9.316;2023-11-19T00:04:12;97338.5;;;8.38;100
17950;BME280;9100;48.700;9.316;2023-11-19T00:05:12;97350.3;;;8.39;100
17950;BME280;9100;48.700;9.316;2023-11-19T00:06:12;97349.40000000001;;;8.4;100
17950;BME280;9100;48.700;9.316;2023-11-19T00:07:12;97332.5;;;8.39;100
17950;BME280;9100;48.700;9.316;2023-11-19T00:08:12;97333.5;;;8.38;100
17950;BME280;9100;48.700;9.316;2023-11-19T00:09:02;97339.5;;;8.37;100
17950;BME280;9100;48.700;9.316;2023-11-19T00:09:12;97336.2;;;8.37;100
17950;BME280;9100;48.700;9.316;2023-11-19T00:10:14;97324.40000000001;;;8.27;100
17950;BME280;9100;48.700;9.316;2023-11-19T00:11:12;97341.09999999999;;;8.38;100
17950;BME280;9100;48.700;9.316;2023-11-19T00:12:12;97328.5;;;8.37;100
17950;BME280;9100;48.700;9.316;2023-11-19T00:13:12;97340.5;;;8.36;100
17950;BME280;9100;48.700;9.316;2023-11-19T00:14:02;97339.70000000001;;;8.36;100
17950;BME280;9100;48.700;9.316;2023-11-19T00:14:12;97338.9;;;8.35;100
17950;BME280;9100;48.700;9.316;2023-11-19T00:15:12;97333.8;;;8.35;100
17950;BME280;9100;48.700;9.316;2023-11-19T00:16:12;97332.8;;;8.36;100
17950;BME280;9100;48.700;9.316;2023-11-19T00:17:12;97329.3;;;8.37;100
17950;BME280;9100;48.700;9.316;2023-11-19T00:18:12;97325.2;;;8.36;100
17950;BME280;9100;48.700;9.316;2023-11-19T00:19:02;97320.1;;;8.36;100
17950;BME280;9100;48.700;9.316;2023-11-19T00:19:12;97312.5;;;8.36;100
17950;BME280;9100;48.700;9.316;2023-11-19T00:20:13;97315;;;8.36;100
17950;BME280;9100;48.700;9.316;2023-11-19T00:21:12;97309.7;;;8.38;100
17950;BME280;9100;48.700;9.316;2023-11-19T00:22:12;97310.5;;;8.38;100
17950;BME280;9100;48.700;9.316;2023-11-19T00:23:12;97298.8;;;8.37;100
17950;BME280;9100;48.700;9.316;2023-11-19T00:24:02;97309.7;;;8.38;100
17950;BME280;9100;48.700;9.316;2023-11-19T00:24:13;97307.2;;;8.38;100
17950;BME280;9100;48.700;9.316;2023-11-19T00:25:13;97291.8;;;8.31;100
17950;BME280;9100;48.700;9.316;2023-11-19T00:26:12;97301.09999999999;;;8.39;100
17950;BME280;9100;48.700;9.316;2023-11-19T00:27:12;97299.40000000001;;;8.39;100
17950;BME280;9100;48.700;9.316;2023-11-19T00:28:12;97295.2;;;8.38;100
17950;BME280;9100;48.700;9.316;2023-11-19T00:29:02;97290.09999999999;;;8.38;100
17950;BME280;9100;48.700;9.316;2023-11-19T00:29:12;97295.2;;;8.38;100
17950;BME280;9100;48.700;9.316;2023-11-19T00:30:13;97286.6;;;8.39;100
17950;BME280;9100;48.700;9.316;2023-11-19T00:31:12;97291.7;;;8.39;100
17950;BME280;9100;48.700;9.316;2023-11-19T00:32:12;97292.5;;;8.4;100
17950;BME280;9100;48.700;9.316;2023-11-19T00:33:12;97296.8;;;8.39;100
17950;BME280;9100;48.700;9.316;2023-11-19T00:34:02;97287.40000000001;;;8.4;100
17950;BME280;9100;48.700;9.316;2023-11-19T00:34:12;97286.6;;;8.39;100
17950;BME280;9100;48.700;9.316;2023-11-19T00:35:12;97298.40000000001;;;8.4;100
17950;BME280;9100;48.700;9.316;2023-11-19T00:36:12;97290.8;;;8.4;100
17950;BME280;9100;48.700;9.316;2023-11-19T00:37:12;97293.3;;;8.4;100
17950;BME280;9100;48.700;9.316;2023-11-19T00:38:12;97298.40000000001;;;8.4;100
17950;BME280;9100;48.700;9.316;2023-11-19T00:39:02;97296.8;;;8.39;100
17950;BME280;9100;48.700;9.316;2023-11-19T00:39:12;97296.8;;;8.39;100
17950;BME280;9100;48.700;9.316;2023-11-19T00:40:13;97297.6;;;8.4;100
17950;BME280;9100;48.700;9.316;2023-11-19T00:41:12;97304.1;;;8.42;100
17950;BME280;9100;48.700;9.316;2023-11-19T00:42:12;97295.7;;;8.42;100
17950;BME280;9100;48.700;9.316;2023-11-19T00:43:12;97301.59999999999;;;8.42;100
17950;BME280;9100;48.700;9.316;2023-11-19T00:44:02;97291.4;;;8.42;100
17950;BME280;9100;48.700;9.316;2023-11-19T00:44:12;97288.8;;;8.42;100
17950;BME280;9100;48.700;9.316;2023-11-19T00:45:13;97286.1;;;8.44;100
17950;BME280;9100;48.700;9.316;2023-11-19T00:46:12;97280.8;;;8.45;100
17950;BME280;9100;48.700;9.316;2023-11-19T00:47:12;97284.2;;;8.46;100
17950;BME280;9100;48.700;9.316;2023-11-19T00:48:12;97282.4;;;8.46;100
17950;BME280;9100;48.700;9.316;2023-11-19T00:49:02;97272.2;;;8.46;100
17950;BME280;9100;48.700;9.316;2023-11-19T00:49:12;97282.4;;;8.46;100
17950;BME280;9100;48.700;9.316;2023-11-19T00:50:12;97280.5;;;8.48;100
17950;BME280;9100;48.700;9.316;2023-11-19T00:51:12;97279.7;;;8.48;100
17950;BME280;9100;48.700;9.316;2023-11-19T00:52:12;97274.59999999999;;;8.48;100
17950;BME280;9100;48.700;9.316;2023-11-19T00:53:12;97267.8;;;8.48;100
17950;BME280;9100;48.700;9.316;2023-11-19T00:54:02;97262.7;;;8.48;100
17950;BME280;9100;48.700;9.316;2023-11-19T00:54:12;97271.1;;;8.49;100
17950;BME280;9100;48.700;9.316;2023-11-19T00:55:13;97268.4;;;8.5;100
17950;BME280;9100;48.700;9.316;2023-11-19T00:56:13;97260.7;;;8.5;100
17950;BME280;9100;48.700;9.316;2023-11-19T00:57:12;97257.2;;;8.51;100
17950;BME280;9100;48.700;9.316;2023-11-19T00:58:12;97251.3;;;8.51;100
17950;BME280;9100;48.700;9.316;2023-11-19T00:59:02;97257.4;;;8.5;100
17950;BME280;9100;48.700;9.316;2023-11-19T00:59:12;97255.6;;;8.5;100
17950;BME280;9100;48.700;9.316;2023-11-19T01:00:13;97252.09999999999;;;8.51;100
17950;BME280;9100;48.700;9.316;2023-11-19T01:01:12;97252.09999999999;;;8.51;100
17950;BME280;9100;48.700;9.316;2023-11-19T01:02:12;97250.40000000001;;;8.52;100
17950;BME280;9100;48.700;9.316;2023-11-19T01:03:12;97255.5;;;8.52;100
17950;BME280;9100;48.700;9.316;2023-11-19T01:04:02;97257;;;8.53;100
17950;BME280;9100;48.700;9.316;2023-11-19T01:04:12;97260.40000000001;;;8.53;100
17950;BME280;9100;48.700;9.316;2023-11-19T01:05:12;97253.5;;;8.54;100
17950;BME280;9100;48.700;9.316;2023-11-19T01:06:12;97251.8;;;8.54;100
17950;BME280;9100;48.700;9.316;2023-11-19T01:07:12;97248.7;;;8.59;100
17950;BME280;9100;48.700;9.316;2023-11-19T01:08:12;97254.2;;;8.62;100
17950;BME280;9100;48.700;9.316;2023-11-19T01:09:02;97251.9;;;8.61;100
17950;BME280;9100;48.700;9.316;2023-11-19T01:09:12;97249.3;;;8.61;100
17950;BME280;9100;48.700;9.316;2023-11-19T01:10:13;97245.6;;;8.63;100
17950;BME280;9100;48.700;9.316;2023-11-19T01:11:19;97240.5;;;8.63;100
17950;BME280;9100;48.700;9.316;2023-11-19T01:12:12;97239.59999999999;;;8.64;100
17950;BME280;9100;48.700;9.316;2023-11-19T01:13:12;97241.09999999999;;;8.65;100
17950;BME280;9100;48.700;9.316;2023-11-19T01:14:02;97238.59999999999;;;8.65;100
17950;BME280;9100;48.700;9.316;2023-11-19T01:14:12;97232.5;;;8.66;100
17950;BME280;9100;48.700;9.316;2023-11-19T01:15:12;97233.3;;;8.67;100
17950;BME280;9100;48.700;9.316;2023-11-19T01:16:12;97239;;;8.69;100
17950;BME280;9100;48.700;9.316;2023-11-19T01:17:12;97228.7;;;8.7;100
17950;BME280;9100;48.700;9.316;2023-11-19T01:18:12;97227.9;;;8.7;100
17950;BME280;9100;48.700;9.316;2023-11-19T01:19:02;97232.2;;;8.69;100
17950;BME280;9100;48.700;9.316;2023-11-19T01:19:12;97233.8;;;8.7;100
17950;BME280;9100;48.700;9.316;2023-11-19T01:20:12;97235.29999999999;;;8.71;100
17950;BME280;9100;48.700;9.316;2023-11-19T01:21:12;97230.2;;;8.71;100
17950;BME280;9100;48.700;9.316;2023-11-19T01:22:12;97233.4;;;8.73;100
17950;BME280;9100;48.700;9.316;2023-11-19T01:23:12;97222.40000000001;;;8.73;100
17950;BME280;9100;48.700;9.316;2023-11-19T01:24:02;97223.2;;;8.73;100
17950;BME280;9100;48.700;9.316;2023-11-19T01:24:12;97226.70000000001;;;8.72;100
17950;BME280;9100;48.700;9.316;2023-11-19T01:25:13;97226.59999999999;;;8.74;100
17950;BME280;9100;48.700;9.316;2023-11-19T01:26:13;97231.5;;;8.75;100
17950;BME280;9100;48.700;9.316;2023-11-19T01:27:12;97232.5;;;8.74;100
17950;BME280;9100;48.700;9.316;2023-11-19T01:28:12;97229.1;;;8.74;100
17950;BME280;9100;48.700;9.316;2023-11-19T01:29:02;97219.7;;;8.74;100
17950;BME280;9100;48.700;9.316;2023-11-19T01:29:12;97225.59999999999;;;8.75;100
17950;BME280;9100;48.700;9.316;2023-11-19T01:30:13;97223.8;;;8.75;100
17950;BME280;9100;48.700;9.316;2023-11-19T01:31:12;97226.2;;;8.77;100
17950;BME280;9100;48.700;9.316;2023-11-19T01:32:12;97217.8;;;8.76;100
17950;BME280;9100;48.700;9.316;2023-11-19T01:33:12;97226.2;;;8.77;100
17950;BME280;9100;48.700;9.316;2023-11-19T01:34:02;97216.8;;;8.78;100
17950;BME280;9100;48.700;9.316;2023-11-19T01:34:12;97216.8;;;8.78;100
17950;BME280;9100;48.700;9.316;2023-11-19T01:35:12;97228.59999999999;;;8.78;100
17950;BME280;9100;48.700;9.316;2023-11-19T01:36:12;97214.8;;;8.8;100
17950;BME280;9100;48.700;9.316;2023-11-19T01:37:13;97216.6;;;8.79;100
17950;BME280;9100;48.700;9.316;2023-11-19T01:38:12;97208;;;8.8;100
17950;BME280;9100;48.700;9.316;2023-11-19T01:39:02;97200.5;;;8.78;100
17950;BME280;9100;48.700;9.316;2023-11-19T01:39:12;97204.9;;;8.78;100
17950;BME280;9100;48.700;9.316;2023-11-19T01:40:12;97214.70000000001;;;8.81;100
17950;BME280;9100;48.700;9.316;2023-11-19T01:41:12;97205.3;;;8.82;100
17950;BME280;9100;48.700;9.316;2023-11-19T01:42:13;97206.8;;;8.83;100
17950;BME280;9100;48.700;9.316;2023-11-19T01:43:29;97209.6;;;8.81;100
17950;BME280;9100;48.700;9.316;2023-11-19T01:44:02;97208.8;;;8.81;100
17950;BME280;9100;48.700;9.316;2023-11-19T01:44:12;97203.7;;;8.81;100
17950;BME280;9100;48.700;9.316;2023-11-19T01:45:17;97198.40000000001;;;8.82;100
17950;BME280;9100;48.700;9.316;2023-11-19T01:46:12;97204.3;;;8.83;100
17950;BME280;9100;48.700;9.316;2023-11-19T01:47:12;97197.40000000001;;;8.83;100
17950;BME280;9100;48.700;9.316;2023-11-19T01:48:12;97195.7;;;8.84;100
17950;BME280;9100;48.700;9.316;2023-11-19T01:49:02;97193.9;;;8.84;100
17950;BME280;9100;48.700;9.316;2023-11-19T01:49:13;97191.4;;;8.84;100
17950;BME280;9100;48.700;9.316;2023-11-19T01:50:12;97202.4;;;8.85;100
17950;BME280;9100;48.700;9.316;2023-11-19T01:51:13;97198.1;;;8.85;100
17950;BME280;9100;48.700;9.316;2023-11-19T01:52:12;97201.4;;;8.86;100
17950;BME280;9100;48.700;9.316;2023-11-19T01:53:12;97212.40000000001;;;8.86;100
17950;BME280;9100;48.700;9.316;2023-11-19T01:54:02;97205.7;;;8.85;100
17950;BME280;9100;48.700;9.316;2023-11-19T01:54:12;97212.40000000001;;;8.86;100
17950;BME280;9100;48.700;9.316;2023-11-19T01:55:13;97214.8;;;8.88;100
17950;BME280;9100;48.700;9.316;2023-11-19T01:56:13;97214.8;;;8.88;100
17950;BME280;9100;48.700;9.316;2023-11-19T01:57:12;97208.5;;;8.9;100
17950;BME280;9100;48.700;9.316;2023-11-19T01:58:12;97214;;;8.94;100
17950;BME280;9100;48.700;9.316;2023-11-19T01:59:02;97219.1;;;8.94;100
17950;BME280;9100;48.700;9.316;2023-11-19T01:59:12;97224.2;;;8.94;100
17950;BME280;9100;48.700;9.316;2023-11-19T02:00:12;97213.9;;;8.95;100
17950;BME280;9100;48.700;9.316;2023-11-19T02:01:13;97212.90000000001;;;8.96;100
17950;BME280;9100;48.700;9.316;2023-11-19T02:02:12;97208.6;;;8.97;100
17950;BME280;9100;48.700;9.316;2023-11-19T02:03:13;97207.8;;;8.96;100
17950;BME280;9100;48.700;9.316;2023-11-19T02:04:02;97213.7;;;8.97;100
17950;BME280;9100;48.700;9.316;2023-11-19T02:04:12;97210.5;;;8.95;100
17950;BME280;9100;48.700;9.316;2023-11-19T02:05:12;97207.6;;;8.98;100
17950;BME280;9100;48.700;9.316;2023-11-19T02:06:12;97200;;;8.98;100
17950;BME280;9100;48.700;9.316;2023-11-19T02:07:12;97209.2;;;8.99;100
17950;BME280;9100;48.700;9.316;2023-11-19T02:08:12;97201.59999999999;;;8.99;100
17950;BME280;9100;48.700;9.316;2023-11-19T02:09:02;97206.7;;;8.99;100
17950;BME280;9100;48.700;9.316;2023-11-19T02:09:12;97205.7;;;9;100
17950;BME280;9100;48.700;9.316;2023-11-19T02:10:12;97204.7;;;9.01;100
17950;BME280;9100;48.700;9.316;2023-11-19T02:11:12;97201.2;;;9.02;100
17950;BME280;9100;48.700;9.316;2023-11-19T02:12:12;97207.9;;;9.03;100
17950;BME280;9100;48.700;9.316;2023-11-19T02:13:12;97199.3;;;9.04;100
17950;BME280;9100;48.700;9.316;2023-11-19T02:14:02;97201.8;;;9.04;100
17950;BME280;9100;48.700;9.316;2023-11-19T02:14:12;97199.3;;;9.04;100
17950;BME280;9100;48.700;9.316;2023-11-19T02:15:12;97196.5;;;9.05;100
17950;BME280;9100;48.700;9.316;2023-11-19T02:16:12;97193;;;9.06;100
17950;BME280;9100;48.700;9.316;2023-11-19T02:17:24;97187.3;;;9.04;100
17950;BME280;9100;48.700;9.316;2023-11-19T02:18:20;97192.2;;;9.06;100
17950;BME280;9100;48.700;9.316;2023-11-19T02:19:02;97196.40000000001;;;9.07;100
17950;BME280;9100;48.700;9.316;2023-11-19T02:19:12;97183.6;;;9.07;100
17950;BME280;9100;48.700;9.316;2023-11-19T02:20:12;97194.6;;;9.07;100
17950;BME280;9100;48.700;9.316;2023-11-19T02:21:12;97195.4;;;9.08;100
17950;BME280;9100;48.700;9.316;2023-11-19T02:22:13;97192.2;;;9.06;100
17950;BME280;9100;48.700;9.316;2023-11-19T02:23:12;97194;;;9.05;100
17950;BME280;9100;48.700;9.316;2023-11-19T02:24:03;97201.59999999999;;;9.05;100
17950;BME280;9100;48.700;9.316;2023-11-19T02:24:14;97193.8;;;9.07;100
17950;BME280;9100;48.700;9.316;2023-11-19T02:25:15;97193;;;9.06;100
17950;BME280;9100;48.700;9.316;2023-11-19T02:26:13;97190.3;;;9.08;100
17950;BME280;9100;48.700;9.316;2023-11-19T02:27:14;97190.3;;;9.08;100
17950;BME280;9100;48.700;9.316;2023-11-19T02:28:12;97189.09999999999;;;9.1;100
17950;BME280;9100;48.700;9.316;2023-11-19T02:29:02;97189.9;;;9.11;100
17950;BME280;9100;48.700;9.316;2023-11-19T02:29:12;97183.2;;;9.1;100
17950;BME280;9100;48.700;9.316;2023-11-19T02:30:12;97182.4;;;9.09;100
17950;BME280;9100;48.700;9.316;2023-11-19T02:31:12;97189.9;;;9.11;100
17950;BME280;9100;48.700;9.316;2023-11-19T02:32:13;97180.5;;;9.11;100
17950;BME280;9100;48.700;9.316;2023-11-19T02:33:12;97186.40000000001;;;9.12;100
17950;BME280;9100;48.700;9.316;2023-11-19T02:34:02;97181.3;;;9.12;100
17950;BME280;9100;48.700;9.316;2023-11-19T02:34:12;97188;;;9.13;100
17950;BME280;9100;48.700;9.316;2023-11-19T02:35:12;97179.5;;;9.12;100
17950;BME280;9100;48.700;9.316;2023-11-19T02:36:13;97181.1;;;9.13;100
17950;BME280;9100;48.700;9.316;2023-11-19T02:37:12;97183.3;;;9.16;100
17950;BME280;9100;48.700;9.316;2023-11-19T02:38:13;97178.59999999999;;;9.2;100
17950;BME280;9100;48.700;9.316;2023-11-19T02:39:02;97177.09999999999;;;9.19;100
17950;BME280;9100;48.700;9.316;2023-11-19T02:39:12;97178.59999999999;;;9.2;100
17950;BME280;9100;48.700;9.316;2023-11-19T02:40:12;97178.5;;;9.21;100
17950;BME280;9100;48.700;9.316;2023-11-19T02:41:13;97173.2;;;9.23;100
17950;BME280;9100;48.700;9.316;2023-11-19T02:42:12;97178.2;;;9.23;100
17950;BME280;9100;48.700;9.316;2023-11-19T02:43:13;97175.7;;;9.23;100
17950;BME280;9100;48.700;9.316;2023-11-19T02:44:02;97179.8;;;9.24;100
17950;BME280;9100;48.700;9.316;2023-11-19T02:44:12;97183.4;;;9.23;100
17950;BME280;9100;48.700;9.316;2023-11-19T02:45:12;97177.9;;;9.26;100
17950;BME280;9100;48.700;9.316;2023-11-19T02:46:12;97176.9;;;9.27;100
17950;BME280;9100;48.700;9.316;2023-11-19T02:47:12;97169.3;;;9.27;100
17950;BME280;9100;48.700;9.316;2023-11-19T02:48:12;97170.9;;;9.28;100
17950;BME280;9100;48.700;9.316;2023-11-19T02:49:02;97178.5;;;9.28;100
17950;BME280;9100;48.700;9.316;2023-11-19T02:49:12;97181.1;;;9.28;100
17950;BME280;9100;48.700;9.316;2023-11-19T02:50:12;97178.3;;;9.3;100
17950;BME280;9100;48.700;9.316;2023-11-19T02:51:12;97183.2;;;9.31;100
17950;BME280;9100;48.700;9.316;2023-11-19T02:52:13;97172.1;;;9.32;100
17950;BME280;9100;48.700;9.316;2023-11-19T02:53:13;97183.1;;;9.33;100
17950;BME280;9100;48.700;9.316;2023-11-19T02:54:02;97186.6;;;9.32;100
17950;BME280;9100;48.700;9.316;2023-11-19T02:54:12;97182.3;;;9.32;100
17950;BME280;9100;48.700;9.316;2023-11-19T02:55:13;97185.5;;;9.34;100
17950;BME280;9100;48.700;9.316;2023-11-19T02:56:13;97181.9;;;9.35;100
17950;BME280;9100;48.700;9.316;2023-11-19T02:57:12;97191.3;;;9.35;100
17950;BME280;9100;48.700;9.316;2023-11-19T02:58:13;97192.9;;;9.36;100
17950;BME280;9100;48.700;9.316;2023-11-19T02:59:02;97186.2;;;9.35;100
17950;BME280;9100;48.700;9.316;2023-11-19T02:59:12;97193.7;;;9.36;100
17950;BME280;9100;48.700;9.316;2023-11-19T03:00:13;97196.3;;;9.36;100
17950;BME280;9100;48.700;9.316;2023-11-19T03:01:13;97180.8;;;9.38;100
17950;BME280;9100;48.700;9.316;2023-11-19T03:02:12;97180.6;;;9.39;100
17950;BME280;9100;48.700;9.316;2023-11-19T03:03:12;97180.8;;;9.38;100
17950;BME280;9100;48.700;9.316;2023-11-19T03:04:02;97193.3;;;9.39;100
17950;BME280;9100;48.700;9.316;2023-11-19T03:04:12;97184.1;;;9.38;100
17950;BME280;9100;48.700;9.316;2023-11-19T03:05:13;97192.4;;;9.4;100
17950;BME280;9100;48.700;9.316;2023-11-19T03:06:12;97188.9;;;9.41;100
17950;BME280;9100;48.700;9.316;2023-11-19T03:07:12;97179.4;;;9.42;100
17950;BME280;9100;48.700;9.316;2023-11-19T03:08:13;97182;;;9.42;100
17950;BME280;9100;48.700;9.316;2023-11-19T03:09:02;97182.8;;;9.42;100
17950;BME280;9100;48.700;9.316;2023-11-19T03:09:12;97179.2;;;9.43;100
17950;BME280;9100;48.700;9.316;2023-11-19T03:10:12;97179.2;;;9.43;100
17950;BME280;9100;48.700;9.316;2023-11-19T03:11:12;97178.09999999999;;;9.46;100
17950;BME280;9100;48.700;9.316;2023-11-19T03:12:12;97180.6;;;9.46;100
17950;BME280;9100;48.700;9.316;2023-11-19T03:13:13;97184.79999999999;;;9.47;100
17950;BME280;9100;48.700;9.316;2023-11-19T03:14:02;97189.09999999999;;;9.46;100
17950;BME280;9100;48.700;9.316;2023-11-19T03:14:12;97185.6;;;9.47;100
17950;BME280;9100;48.700;9.316;2023-11-19T03:15:12;97188.9;;;9.48;100
17950;BME280;9100;48.700;9.316;2023-11-19T03:16:12;97182;;;9.48;100
17950;BME280;9100;48.700;9.316;2023-11-19T03:17:12;97188.7;;;9.49;100
17950;BME280;9100;48.700;9.316;2023-11-19T03:18:13;97187.8;;;9.5;100
17950;BME280;9100;48.700;9.316;2023-11-19T03:19:02;97188.7;;;9.49;100
17950;BME280;9100;48.700;9.316;2023-11-19T03:19:12;97189.5;;;9.5;100
17950;BME280;9100;48.700;9.316;2023-11-19T03:20:12;97190.3;;;9.5;100
17950;BME280;9100;48.700;9.316;2023-11-19T03:21:12;97197;;;9.51;100
17950;BME280;9100;48.700;9.316;2023-11-19T03:22:12;97199.3;;;9.53;100
17950;BME280;9100;48.700;9.316;2023-11-19T03:23:12;97205.2;;;9.53;100
17950;BME280;9100;48.700;9.316;2023-11-19T03:24:02;97193.5;;;9.52;100
17950;BME280;9100;48.700;9.316;2023-11-19T03:24:12;97200.09999999999;;;9.53;100
17950;BME280;9100;48.700;9.316;2023-11-19T03:25:12;97195;;;9.53;100
17950;BME280;9100;48.700;9.316;2023-11-19T03:26:13;97194.1;;;9.54;100
17950;BME280;9100;48.700;9.316;2023-11-19T03:27:12;97194.1;;;9.54;100
17950;BME280;9100;48.700;9.316;2023-11-19T03:28:12;97192.1;;;9.56;100
17950;BME280;9100;48.700;9.316;2023-11-19T03:29:02;97180.5;;;9.47;100
17950;BME280;9100;48.700;9.316;2023-11-19T03:29:12;97195.7;;;9.55;100
17950;BME280;9100;48.700;9.316;2023-11-19T03:30:12;97171;;;9.41;100
17950;BME280;9100;48.700;9.316;2023-11-19T03:31:12;97195.5;;;9.57;100
17950;BME280;9100;48.700;9.316;2023-11-19T03:32:13;97194.5;;;9.58;100
17950;BME280;9100;48.700;9.316;2023-11-19T03:33:12;97192.7;;;9.58;100
17950;BME280;9100;48.700;9.316;2023-11-19T03:34:02;97179.8;;;9.6;100
17950;BME280;9100;48.700;9.316;2023-11-19T03:34:12;97193.3;;;9.6;100
17950;BME280;9100;48.700;9.316;2023-11-19T03:35:12;97198.2;;;9.62;100
17950;BME280;9100;48.700;9.316;2023-11-19T03:36:12;97200.59999999999;;;9.63;100
17950;BME280;9100;48.700;9.316;2023-11-19T03:37:12;97199;;;9.62;100
17950;BME280;9100;48.700;9.316;2023-11-19T03:38:12;97199;;;9.62;100
17950;BME280;9100;48.700;9.316;2023-11-19T03:39:02;97202.4;;;9.63;100
17950;BME280;9100;48.700;9.316;2023-11-19T03:39:12;97197.29999999999;;;9.63;100
17950;BME280;9100;48.700;9.316;2023-11-19T03:40:12;97200.59999999999;;;9.63;100
17950;BME280;9100;48.700;9.316;2023-11-19T03:41:12;97202.20000000001;;;9.64;100
17950;BME280;9100;48.700;9.316;2023-11-19T03:42:13;97202.20000000001;;;9.64;100
17950;BME280;9100;48.700;9.316;2023-11-19T03:43:12;97200.3;;;9.66;100
17950;BME280;9100;48.700;9.316;2023-11-19T03:44:02;97201.9;;;9.67;100
17950;BME280;9100;48.700;9.316;2023-11-19T03:44:12;97197.7;;;9.66;100
17950;BME280;9100;48.700;9.316;2023-11-19T03:45:12;97191.6;;;9.67;100
17950;BME280;9100;48.700;9.316;2023-11-19T03:46:20;97202.5;;;9.69;100
17950;BME280;9100;48.700;9.316;2023-11-19T03:47:12;97190.59999999999;;;9.68;100
17950;BME280;9100;48.700;9.316;2023-11-19T03:48:12;97196.8;;;9.67;100
17950;BME280;9100;48.700;9.316;2023-11-19T03:49:02;97191.6;;;9.67;100
17950;BME280;9100;48.700;9.316;2023-11-19T03:49:12;97185.5;;;9.68;100
17950;BME280;9100;48.700;9.316;2023-11-19T03:50:12;97189.70000000001;;;9.69;100
17950;BME280;9100;48.700;9.316;2023-11-19T03:51:12;97177.70000000001;;;9.7;100
17950;BME280;9100;48.700;9.316;2023-11-19T03:52:13;97174;;;9.72;100
17950;BME280;9100;48.700;9.316;2023-11-19T03:53:12;97183.2;;;9.73;100
17950;BME280;9100;48.700;9.316;2023-11-19T03:54:02;97179.1;;;9.72;100
17950;BME280;9100;48.700;9.316;2023-11-19T03:54:12;97179.1;;;9.72;100
17950;BME280;9100;48.700;9.316;2023-11-19T03:55:12;97174;;;9.72;100
17950;BME280;9100;48.700;9.316;2023-11-19T03:56:12;97183.1;;;9.75;100
17950;BME280;9100;48.700;9.316;2023-11-19T03:57:13;97176.4;;;9.74;100
17950;BME280;9100;48.700;9.316;2023-11-19T03:58:13;97183.2;;;9.73;100
17950;BME280;9100;48.700;9.316;2023-11-19T03:59:02;97180.7;;;9.73;100
17950;BME280;9100;48.700;9.316;2023-11-19T03:59:12;97181.5;;;9.74;100
17950;BME280;9100;48.700;9.316;2023-11-19T04:00:13;97183.8;;;9.75;100
17950;BME280;9100;48.700;9.316;2023-11-19T04:01:12;97176.2;;;9.75;100
17950;BME280;9100;48.700;9.316;2023-11-19T04:02:13;97186.2;;;9.77;100
17950;BME280;9100;48.700;9.316;2023-11-19T04:03:12;97189.59999999999;;;9.78;100
17950;BME280;9100;48.700;9.316;2023-11-19T04:04:02;97192.3;;;9.76;100
17950;BME280;9100;48.700;9.316;2023-11-19T04:04:12;97188;;;9.77;100
17950;BME280;9100;48.700;9.316;2023-11-19T04:05:12;97187.8;;;9.78;100
17950;BME280;9100;48.700;9.316;2023-11-19T04:06:12;97179.1;;;9.79;100
17950;BME280;9100;48.700;9.316;2023-11-19T04:07:12;97180.9;;;9.79;100
17950;BME280;9100;48.700;9.316;2023-11-19T04:08:12;97178.4;;;9.79;100
17950;BME280;9100;48.700;9.316;2023-11-19T04:09:02;97178.4;;;9.79;100
17950;BME280;9100;48.700;9.316;2023-11-19T04:09:12;97180.1;;;9.78;100
17950;BME280;9100;48.700;9.316;2023-11-19T04:10:12;97170.5;;;9.8;100
17950;BME280;9100;48.700;9.316;2023-11-19T04:11:12;97167.8;;;9.82;100
17950;BME280;9100;48.700;9.316;2023-11-19T04:12:12;97167;;;9.81;100
17950;BME280;9100;48.700;9.316;2023-11-19T04:13:12;97171.3;;;9.81;100
17950;BME280;9100;48.700;9.316;2023-11-19T04:14:02;97163.7;;;9.81;100
17950;BME280;9100;48.700;9.316;2023-11-19T04:14:12;97163.5;;;9.82;100
17950;BME280;9100;48.700;9.316;2023-11-19T04:15:13;97165.8;;;9.84;100
17950;BME280;9100;48.700;9.316;2023-11-19T04:16:12;97165;;;9.83;100
17950;BME280;9100;48.700;9.316;2023-11-19T04:17:12;97172.5;;;9.85;100
17950;BME280;9100;48.700;9.316;2023-11-19T04:18:12;97183.5;;;9.85;100
17950;BME280;9100;48.700;9.316;2023-11-19T04:19:02;97187.8;;;9.85;100
17950;BME280;9100;48.700;9.316;2023-11-19T04:19:12;97181.8;;;9.86;100
17950;BME280;9100;48.700;9.316;2023-11-19T04:20:12;97181;;;9.85;100
17950;BME280;9100;48.700;9.316;2023-11-19T04:21:12;97192.6;;;9.88;100
17950;BME280;9100;48.700;9.316;2023-11-19T04:22:13;97186.90000000001;;;9.86;100
17950;BME280;9100;48.700;9.316;2023-11-19T04:23:13;97196.1;;;9.87;100
17950;BME280;9100;48.700;9.316;2023-11-19T04:24:02;97193.5;;;9.87;100
17950;BME280;9100;48.700;9.316;2023-11-19T04:24:13;97192.8;;;9.86;100
17950;BME280;9100;48.700;9.316;2023-11-19T04:25:12;97191.8;;;9.87;100
17950;BME280;9100;48.700;9.316;2023-11-19T04:26:12;97194.2;;;9.89;100
17950;BME280;9100;48.700;9.316;2023-11-19T04:27:13;97197.7;;;9.88;100
17950;BME280;9100;48.700;9.316;2023-11-19T04:28:12;97203.59999999999;;;9.88;100
17950;BME280;9100;48.700;9.316;2023-11-19T04:29:02;97207.7;;;9.89;100
17950;BME280;9100;48.700;9.316;2023-11-19T04:29:13;97204.4;;;9.89;100
17950;BME280;9100;48.700;9.316;2023-11-19T04:30:13;97202.4;;;9.91;100
17950;BME280;9100;48.700;9.316;2023-11-19T04:31:12;97212.59999999999;;;9.91;100
17950;BME280;9100;48.700;9.316;2023-11-19T04:32:12;97212.59999999999;;;9.91;100
17950;BME280;9100;48.700;9.316;2023-11-19T04:33:12;97209.1;;;9.92;100
17950;BME280;9100;48.700;9.316;2023-11-19T04:34:02;97206.7;;;9.9;100
17950;BME280;9100;48.700;9.316;2023-11-19T04:34:12;97206.5;;;9.92;100
17950;BME280;9100;48.700;9.316;2023-11-19T04:35:13;97204.6;;;9.94;100
17950;BME280;9100;48.700;9.316;2023-11-19T04:36:12;97191.8;;;9.94;100
17950;BME280;9100;48.700;9.316;2023-11-19T04:37:12;97190.9;;;9.95;100
17950;BME280;9100;48.700;9.316;2023-11-19T04:38:13;97187.5;;;9.94;100